createdAt,value
2022-11-30T00:01:34.750Z,19.60
2022-11-30T00:04:02.834Z,18.77
2022-11-30T00:06:30.537Z,17.10
2022-11-30T00:08:59.843Z,17.90
2022-11-30T00:11:29.877Z,18.40
2022-11-30T00:14:00.524Z,18.20
2022-11-30T00:16:28.270Z,16.57
2022-11-30T00:18:56.001Z,17.83
2022-11-30T00:21:25.928Z,16.77
2022-11-30T00:23:53.622Z,16.70
2022-11-30T00:26:23.659Z,16.03
2022-11-30T00:28:53.453Z,17.57
2022-11-30T00:31:21.982Z,18.40
2022-11-30T00:33:52.232Z,18.67
2022-11-30T00:36:23.026Z,17.57
2022-11-30T00:38:52.316Z,18.40
2022-11-30T00:41:21.576Z,17.47
2022-11-30T00:43:49.481Z,18.80
2022-11-30T00:46:18.945Z,19.77
2022-11-30T00:48:48.035Z,20.93
2022-11-30T00:51:16.905Z,19.50
2022-11-30T00:53:44.691Z,17.10
2022-11-30T00:56:12.414Z,18.00
2022-11-30T00:58:41.192Z,16.70
2022-11-30T01:01:09.811Z,18.23
2022-11-30T01:03:39.722Z,18.57
2022-11-30T01:06:09.427Z,17.87
2022-11-30T01:08:37.599Z,17.83
2022-11-30T01:11:08.525Z,18.53
2022-11-30T01:13:37.044Z,17.07
2022-11-30T01:16:10.984Z,15.20
2022-11-30T01:18:41.140Z,17.17
2022-11-30T01:21:09.814Z,17.10
2022-11-30T01:23:38.191Z,15.67
2022-11-30T01:26:06.477Z,17.53
2022-11-30T01:28:34.378Z,18.80
2022-11-30T01:31:05.474Z,18.13
2022-11-30T01:33:33.643Z,18.07
2022-11-30T01:36:06.444Z,18.97
2022-11-30T01:38:35.986Z,18.67
2022-11-30T01:41:06.100Z,16.97
2022-11-30T01:43:43.312Z,17.63
2022-11-30T01:46:25.990Z,15.13
2022-11-30T01:49:00.585Z,17.27
2022-11-30T01:51:35.683Z,16.43
2022-11-30T01:54:07.409Z,17.63
2022-11-30T01:56:37.283Z,17.10
2022-11-30T01:59:05.977Z,19.13
2022-11-30T02:01:34.043Z,16.67
2022-11-30T02:04:09.633Z,17.50
2022-11-30T02:06:38.665Z,16.77
2022-11-30T02:09:06.310Z,14.93
2022-11-30T02:11:35.308Z,15.10
2022-11-30T02:14:15.925Z,14.83
2022-11-30T02:16:55.394Z,15.47
2022-11-30T02:19:49.463Z,15.97
2022-11-30T02:22:31.105Z,15.60
2022-11-30T02:25:09.964Z,15.30
2022-11-30T02:27:58.396Z,16.47
2022-11-30T02:30:28.228Z,17.40
2022-11-30T02:33:01.447Z,18.10
2022-11-30T02:35:32.167Z,15.90
2022-11-30T02:38:02.583Z,17.67
2022-11-30T02:40:30.837Z,15.30
2022-11-30T02:43:01.591Z,15.60
2022-11-30T02:45:35.543Z,13.53
2022-11-30T02:48:09.585Z,12.50
2022-11-30T02:50:42.076Z,14.77
2022-11-30T02:53:11.686Z,16.03
2022-11-30T02:55:39.365Z,16.47
2022-11-30T02:58:08.257Z,14.40
2022-11-30T03:00:37.913Z,14.90
2022-11-30T03:03:06.377Z,12.87
2022-11-30T03:05:34.172Z,13.57
2022-11-30T03:08:02.075Z,15.10
2022-11-30T03:10:29.950Z,14.67
2022-11-30T03:12:59.364Z,15.13
2022-11-30T03:15:27.581Z,16.70
2022-11-30T03:17:56.844Z,12.33
2022-11-30T03:20:25.014Z,14.57
2022-11-30T03:22:52.801Z,14.93
2022-11-30T03:25:20.476Z,15.27
2022-11-30T03:27:48.623Z,14.70
2022-11-30T03:30:16.678Z,15.13
2022-11-30T03:32:44.734Z,16.90
2022-11-30T03:35:13.805Z,16.00
2022-11-30T03:37:42.011Z,16.17
2022-11-30T03:40:11.374Z,14.27
2022-11-30T03:42:39.430Z,13.60
2022-11-30T03:45:08.185Z,13.90
2022-11-30T03:47:36.780Z,13.23
2022-11-30T03:50:05.430Z,14.13
2022-11-30T03:52:34.550Z,13.20
2022-11-30T03:55:02.275Z,12.77
2022-11-30T03:57:30.537Z,13.10
2022-11-30T03:59:58.882Z,10.90
2022-11-30T04:02:27.245Z,12.80
2022-11-30T04:04:55.293Z,12.70
2022-11-30T04:07:23.155Z,11.93
2022-11-30T04:09:52.315Z,13.00
2022-11-30T04:12:21.085Z,11.80
2022-11-30T04:14:49.021Z,10.17
2022-11-30T04:17:17.572Z,10.67
2022-11-30T04:19:45.334Z,9.30
2022-11-30T04:22:13.580Z,11.37
2022-11-30T04:24:41.721Z,11.13
2022-11-30T04:27:10.979Z,10.53
2022-11-30T04:29:38.695Z,10.80
2022-11-30T04:32:07.118Z,10.50
2022-11-30T04:34:34.917Z,11.10
2022-11-30T04:37:03.570Z,8.77
2022-11-30T04:39:35.869Z,11.00
2022-11-30T04:42:04.568Z,10.90
2022-11-30T04:44:33.925Z,11.90
2022-11-30T04:47:03.601Z,11.60
2022-11-30T04:49:31.847Z,11.00
2022-11-30T04:52:00.597Z,12.00
2022-11-30T04:54:29.377Z,10.50
2022-11-30T04:56:57.207Z,9.73
2022-11-30T04:59:25.011Z,13.33
2022-11-30T05:01:54.428Z,9.97
2022-11-30T05:04:22.678Z,10.70
2022-11-30T05:06:50.884Z,9.10
2022-11-30T05:09:20.014Z,10.17
2022-11-30T05:11:50.096Z,8.63
2022-11-30T05:14:18.778Z,9.40
2022-11-30T05:16:48.901Z,8.40
2022-11-30T05:19:17.959Z,9.20
2022-11-30T05:21:46.309Z,9.00
2022-11-30T05:24:14.335Z,9.30
2022-11-30T05:26:42.860Z,10.03
2022-11-30T05:29:11.076Z,8.63
2022-11-30T05:31:39.763Z,8.57
2022-11-30T05:34:08.360Z,9.10
2022-11-30T05:36:37.971Z,8.27
2022-11-30T05:39:07.147Z,8.40
2022-11-30T05:41:35.298Z,9.30
2022-11-30T05:44:03.287Z,9.00
2022-11-30T05:46:31.454Z,10.10
2022-11-30T05:48:59.506Z,11.47
2022-11-30T05:51:27.754Z,10.90
2022-11-30T05:53:57.517Z,10.07
2022-11-30T05:56:25.366Z,11.27
2022-11-30T05:58:54.164Z,11.70
2022-11-30T06:01:24.805Z,12.00
2022-11-30T06:03:53.991Z,12.47
2022-11-30T06:06:22.306Z,12.53
2022-11-30T06:08:51.480Z,11.60
2022-11-30T06:11:20.938Z,12.73
2022-11-30T06:13:49.084Z,12.23
2022-11-30T06:16:17.116Z,12.50
2022-11-30T06:18:45.257Z,12.87
2022-11-30T06:21:13.418Z,12.80
2022-11-30T06:23:41.181Z,11.97
2022-11-30T06:26:12.655Z,13.63
2022-11-30T06:28:47.648Z,12.40
2022-11-30T06:31:16.942Z,12.37
2022-11-30T06:33:44.977Z,12.17
2022-11-30T06:36:13.209Z,12.60
2022-11-30T06:38:41.291Z,11.90
2022-11-30T06:41:12.771Z,12.57
2022-11-30T06:43:42.318Z,11.83
2022-11-30T06:46:11.524Z,12.17
2022-11-30T06:48:39.760Z,13.57
2022-11-30T06:51:11.469Z,13.30
2022-11-30T06:53:39.311Z,12.47
2022-11-30T06:56:10.646Z,13.43
2022-11-30T06:58:39.702Z,11.03
2022-11-30T07:01:10.929Z,11.03
2022-11-30T07:03:40.802Z,13.03
2022-11-30T07:06:09.682Z,14.93
2022-11-30T07:08:37.659Z,12.73
2022-11-30T07:11:06.176Z,13.60
2022-11-30T07:13:34.347Z,13.80
2022-11-30T07:16:04.435Z,14.20
2022-11-30T07:18:34.126Z,15.20
2022-11-30T07:21:04.802Z,14.03
2022-11-30T07:23:55.825Z,14.87
2022-11-30T07:26:24.919Z,12.97
2022-11-30T07:28:58.780Z,15.77
2022-11-30T07:31:29.354Z,13.30
2022-11-30T07:34:00.990Z,14.37
2022-11-30T07:36:30.707Z,13.77
2022-11-30T07:38:58.488Z,14.77
2022-11-30T07:41:27.300Z,13.60
2022-11-30T07:43:54.924Z,14.80
2022-11-30T07:46:23.672Z,15.10
2022-11-30T07:48:51.895Z,14.57
2022-11-30T07:51:23.126Z,12.90
2022-11-30T07:53:51.874Z,14.10
2022-11-30T07:56:22.102Z,13.97
2022-11-30T07:58:51.958Z,13.27
2022-11-30T08:01:23.010Z,13.07
2022-11-30T08:03:51.392Z,14.20
2022-11-30T08:06:23.167Z,13.70
2022-11-30T08:08:53.066Z,14.37
2022-11-30T08:11:23.301Z,14.10
2022-11-30T08:13:51.633Z,15.40
2022-11-30T08:16:21.177Z,14.50
2022-11-30T08:18:50.129Z,15.70
2022-11-30T08:21:20.197Z,14.47
2022-11-30T08:23:51.072Z,13.10
2022-11-30T08:26:20.289Z,14.40
2022-11-30T08:28:50.915Z,13.80
2022-11-30T08:31:21.259Z,13.03
2022-11-30T08:33:50.625Z,14.23
2022-11-30T08:36:20.686Z,13.57
2022-11-30T08:38:50.596Z,13.07
2022-11-30T08:41:20.552Z,13.57
2022-11-30T08:43:49.554Z,14.73
2022-11-30T08:54:50.379Z,15.60
2022-11-30T08:57:20.766Z,14.57
2022-11-30T08:59:49.337Z,13.87
2022-11-30T09:02:19.856Z,14.90
2022-11-30T09:04:51.026Z,13.60
2022-11-30T09:07:19.681Z,12.13
2022-11-30T09:09:49.241Z,11.37
2022-11-30T09:12:17.485Z,12.20
2022-11-30T09:14:49.649Z,13.00
2022-11-30T09:17:20.615Z,11.87
2022-11-30T09:19:48.223Z,12.50
2022-11-30T09:22:16.297Z,12.00
2022-11-30T09:24:44.645Z,12.27
2022-11-30T09:27:14.544Z,12.53
2022-11-30T09:29:43.276Z,12.53
2022-11-30T09:32:10.956Z,11.13
2022-11-30T09:34:39.438Z,12.13
2022-11-30T09:37:07.557Z,11.03
2022-11-30T09:39:35.705Z,9.43
2022-11-30T09:42:20.719Z,11.20
2022-11-30T09:44:59.710Z,10.60
2022-11-30T09:47:50.136Z,11.40
2022-11-30T09:50:23.354Z,10.83
2022-11-30T09:52:54.397Z,10.07
2022-11-30T09:55:27.896Z,10.50
2022-11-30T09:57:59.688Z,10.80
2022-11-30T10:00:28.059Z,9.97
2022-11-30T10:02:58.714Z,9.57
2022-11-30T10:05:35.740Z,8.73
2022-11-30T10:08:27.098Z,8.80
2022-11-30T10:11:10.592Z,8.87
2022-11-30T10:13:53.318Z,9.13
2022-11-30T10:16:32.572Z,8.77
2022-11-30T10:19:10.401Z,8.83
2022-11-30T10:21:52.362Z,10.17
2022-11-30T10:24:32.865Z,8.67
2022-11-30T10:27:13.504Z,8.80
2022-11-30T10:29:44.110Z,8.53
2022-11-30T10:32:18.091Z,8.03
2022-11-30T10:34:51.546Z,7.50
2022-11-30T10:37:23.854Z,9.03
2022-11-30T10:40:00.910Z,9.13
2022-11-30T10:42:32.379Z,8.37
2022-11-30T10:45:05.489Z,8.40
2022-11-30T10:47:37.581Z,8.47
2022-11-30T10:50:07.108Z,7.87
2022-11-30T10:52:43.502Z,7.03
2022-11-30T10:55:15.968Z,8.67
2022-11-30T10:57:45.518Z,8.30
2022-11-30T11:00:17.516Z,8.20
2022-11-30T11:02:48.202Z,7.80
2022-11-30T11:05:20.659Z,9.50
2022-11-30T11:08:04.347Z,8.07
2022-11-30T11:10:37.173Z,6.60
2022-11-30T11:13:06.335Z,6.70
2022-11-30T11:15:37.732Z,6.63
2022-11-30T11:18:24.189Z,7.10
2022-11-30T11:21:06.148Z,6.40
2022-11-30T11:23:37.628Z,6.23
2022-11-30T11:26:06.549Z,6.17
2022-11-30T11:28:36.882Z,6.33
2022-11-30T11:31:19.966Z,6.43
2022-11-30T11:33:52.538Z,6.60
2022-11-30T11:36:28.217Z,6.40
2022-11-30T11:38:56.392Z,7.00
2022-11-30T11:41:28.628Z,8.27
2022-11-30T11:44:01.268Z,6.57
2022-11-30T11:46:32.127Z,6.37
2022-11-30T11:49:02.482Z,7.63
2022-11-30T11:51:33.378Z,8.33
2022-11-30T11:54:08.072Z,7.80
2022-11-30T11:56:38.884Z,7.27
2022-11-30T11:59:16.302Z,6.83
2022-11-30T12:01:52.750Z,7.03
2022-11-30T12:04:40.253Z,8.57
2022-11-30T12:07:18.573Z,7.20
2022-11-30T12:09:56.554Z,7.37
2022-11-30T12:12:25.519Z,6.83
2022-11-30T12:14:54.009Z,8.67
2022-11-30T12:17:39.958Z,8.17
2022-11-30T12:20:20.045Z,7.77
2022-11-30T12:23:02.378Z,8.43
2022-11-30T12:25:33.263Z,9.03
2022-11-30T12:28:15.063Z,9.20
2022-11-30T12:30:51.441Z,9.17
2022-11-30T12:33:33.620Z,10.17
2022-11-30T12:36:11.438Z,9.83
2022-11-30T12:38:48.042Z,8.67
2022-11-30T12:41:33.499Z,8.83
2022-11-30T12:44:35.500Z,9.37
2022-11-30T12:47:21.620Z,8.03
2022-11-30T12:50:17.673Z,9.10
2022-11-30T12:52:54.585Z,10.43
2022-11-30T12:55:32.187Z,11.30
2022-11-30T12:58:10.427Z,10.83
2022-11-30T13:00:47.376Z,10.10
2022-11-30T13:03:45.762Z,9.47
2022-11-30T13:06:18.728Z,9.47
2022-11-30T13:08:57.034Z,10.10
2022-11-30T13:11:29.757Z,9.53
2022-11-30T13:14:00.550Z,10.90
2022-11-30T13:16:31.146Z,9.00
2022-11-30T13:19:12.213Z,10.13
2022-11-30T13:21:48.594Z,10.60
2022-11-30T13:24:25.082Z,10.10
2022-11-30T13:27:00.154Z,9.27
2022-11-30T13:30:06.368Z,11.00
2022-11-30T13:35:54.032Z,9.43
2022-11-30T13:38:39.003Z,9.27
2022-11-30T13:41:10.534Z,9.30
2022-11-30T13:43:43.913Z,10.27
2022-11-30T13:46:17.468Z,9.67
2022-11-30T13:48:45.871Z,9.47
2022-11-30T13:51:16.496Z,9.47
2022-11-30T13:53:45.577Z,10.30
2022-11-30T13:56:33.978Z,9.20
2022-11-30T13:59:34.605Z,9.87
2022-11-30T14:02:43.073Z,9.50
2022-11-30T14:05:26.063Z,9.60
2022-11-30T14:08:18.907Z,9.43
2022-11-30T14:10:49.273Z,9.63
2022-11-30T14:13:31.804Z,9.93
2022-11-30T14:16:01.848Z,10.23
2022-11-30T14:18:41.704Z,9.40
2022-11-30T14:21:26.701Z,10.20
2022-11-30T14:24:00.289Z,10.13
2022-11-30T14:26:38.287Z,8.67
2022-11-30T14:29:17.698Z,9.67
2022-11-30T14:31:53.992Z,10.10
2022-11-30T14:34:27.199Z,10.43
2022-11-30T14:36:58.046Z,10.30
2022-11-30T14:39:28.669Z,8.77
2022-11-30T14:41:57.874Z,10.80
2022-11-30T14:44:26.795Z,9.70
2022-11-30T14:46:55.175Z,8.87
2022-11-30T14:49:24.925Z,8.67
2022-11-30T14:51:55.268Z,8.97
2022-11-30T14:54:43.089Z,8.90
2022-11-30T14:57:23.178Z,8.70
2022-11-30T14:59:54.329Z,8.70
2022-11-30T15:02:27.511Z,8.03
2022-11-30T15:04:57.654Z,8.80
2022-11-30T15:07:26.934Z,8.83
2022-11-30T15:10:03.614Z,8.63
2022-11-30T15:12:34.206Z,8.77
2022-11-30T15:15:18.115Z,7.87
2022-11-30T15:17:52.705Z,7.63
2022-11-30T15:20:27.423Z,6.80
2022-11-30T15:22:56.441Z,7.50
2022-11-30T15:25:29.616Z,8.37
2022-11-30T15:27:59.783Z,7.90
2022-11-30T15:30:27.977Z,8.47
2022-11-30T15:32:58.798Z,8.00
2022-11-30T15:35:38.821Z,7.80
2022-11-30T15:39:05.480Z,8.33
2022-11-30T15:41:35.380Z,9.70
2022-11-30T15:44:04.783Z,9.27
2022-11-30T15:46:39.799Z,8.83
2022-11-30T15:49:22.105Z,8.00
2022-11-30T15:52:00.853Z,9.53
2022-11-30T15:54:46.072Z,8.90
2022-11-30T15:57:14.304Z,8.07
2022-11-30T15:59:44.040Z,7.50
2022-11-30T16:02:28.405Z,7.43
2022-11-30T16:05:25.761Z,7.50
2022-11-30T16:07:56.147Z,5.10
2022-11-30T16:10:26.797Z,4.53
2022-11-30T16:12:56.524Z,4.47
2022-11-30T16:15:28.503Z,3.90
2022-11-30T16:18:00.887Z,4.90
2022-11-30T16:20:29.036Z,5.43
2022-11-30T16:23:01.111Z,4.50
2022-11-30T16:25:32.687Z,4.70
2022-11-30T16:28:02.557Z,4.10
2022-11-30T16:30:32.434Z,3.90
2022-11-30T16:33:00.526Z,4.93
2022-11-30T16:35:36.677Z,4.40
2022-11-30T16:38:05.132Z,4.50
2022-11-30T16:40:38.526Z,4.77
2022-11-30T16:43:07.347Z,3.60
2022-11-30T16:45:38.776Z,3.30
2022-11-30T16:48:07.667Z,2.77
2022-11-30T16:50:36.567Z,2.80
2022-11-30T16:53:06.829Z,2.40
2022-11-30T16:55:41.289Z,2.90
2022-11-30T16:58:09.719Z,2.73
2022-11-30T17:00:41.184Z,3.30
2022-11-30T17:03:21.654Z,3.43
2022-11-30T17:05:49.760Z,2.60
2022-11-30T17:08:18.083Z,3.57
2022-11-30T17:10:47.167Z,3.80
2022-11-30T17:13:18.015Z,4.50
2022-11-30T17:15:47.563Z,4.70
2022-11-30T17:18:15.358Z,4.70
2022-11-30T17:20:45.369Z,6.43
2022-11-30T17:23:13.183Z,5.13
2022-11-30T17:25:40.976Z,5.60
2022-11-30T17:28:08.817Z,5.00
2022-11-30T17:30:37.369Z,5.50
2022-11-30T17:33:06.562Z,5.13
2022-11-30T17:35:34.888Z,5.60
2022-11-30T17:41:45.294Z,4.33
2022-11-30T17:44:16.489Z,5.73
2022-11-30T17:46:48.133Z,4.80
2022-11-30T17:49:17.997Z,5.80
2022-11-30T17:51:46.044Z,6.20
2022-11-30T17:54:17.571Z,6.20
2022-11-30T17:56:48.092Z,5.60
2022-11-30T17:59:18.765Z,5.30
2022-11-30T18:01:47.660Z,5.50
2022-11-30T18:04:35.987Z,5.43
2022-11-30T18:07:08.549Z,5.40
2022-11-30T18:09:42.390Z,6.00
2022-11-30T18:12:12.154Z,5.60
2022-11-30T18:14:39.974Z,6.00
2022-11-30T18:17:08.483Z,5.50
2022-11-30T18:19:38.168Z,5.50
2022-11-30T18:22:06.251Z,6.43
2022-11-30T18:24:34.567Z,6.70
2022-11-30T18:27:04.637Z,5.80
2022-11-30T18:29:45.363Z,6.40
2022-11-30T18:32:17.664Z,5.87
2022-11-30T18:34:53.482Z,5.67
2022-11-30T18:37:28.085Z,5.37
2022-11-30T18:40:12.641Z,6.80
2022-11-30T18:43:28.257Z,6.27
2022-11-30T18:56:44.427Z,5.03
2022-11-30T18:59:14.570Z,6.20
2022-11-30T19:02:12.050Z,6.70
2022-11-30T19:04:48.792Z,5.63
2022-11-30T19:07:42.669Z,5.40
2022-11-30T19:10:44.080Z,6.40
2022-11-30T19:14:42.489Z,7.10
2022-11-30T19:17:12.233Z,6.50
2022-11-30T19:19:44.060Z,5.17
2022-11-30T19:24:10.083Z,6.73
2022-11-30T19:45:06.947Z,6.80
2022-11-30T19:48:14.881Z,7.07
2022-11-30T19:51:17.797Z,7.27
2022-11-30T19:54:35.908Z,7.30
2022-11-30T19:58:24.401Z,8.23
2022-11-30T20:00:55.955Z,7.53
2022-11-30T20:03:25.903Z,7.30
2022-11-30T20:06:12.702Z,6.23
2022-11-30T20:08:43.882Z,6.90
2022-11-30T20:11:13.742Z,6.63
2022-11-30T20:13:44.212Z,6.70
2022-11-30T20:16:13.972Z,6.93
2022-11-30T20:18:46.546Z,7.33
2022-11-30T20:21:16.995Z,7.27
2022-11-30T20:23:47.296Z,6.60
2022-11-30T20:26:18.648Z,7.00
2022-11-30T20:28:49.165Z,6.73
2022-11-30T20:31:20.751Z,6.70
2022-11-30T20:33:49.418Z,7.70
2022-11-30T20:36:19.042Z,6.27
2022-11-30T20:38:48.512Z,7.70
2022-11-30T20:41:19.430Z,8.20
2022-11-30T20:43:49.704Z,7.30
2022-11-30T20:46:21.336Z,6.80
2022-11-30T20:48:50.974Z,5.47
2022-11-30T20:51:36.587Z,7.87
2022-11-30T20:54:07.730Z,7.60
2022-11-30T20:56:37.360Z,6.87
2022-11-30T20:59:09.383Z,7.03
2022-11-30T21:01:38.013Z,6.10
2022-11-30T21:04:06.589Z,7.70
2022-11-30T21:06:35.340Z,6.00
2022-11-30T21:09:03.551Z,6.70
2022-11-30T21:11:32.542Z,7.07
2022-11-30T21:14:00.596Z,6.70
2022-11-30T21:16:31.326Z,6.80
2022-11-30T21:19:01.250Z,6.50
2022-11-30T21:21:31.293Z,8.37
2022-11-30T21:24:01.713Z,7.07
2022-11-30T21:26:32.016Z,7.63
2022-11-30T21:29:03.322Z,7.37
2022-11-30T21:31:34.487Z,7.07
2022-11-30T21:34:03.638Z,8.60
2022-11-30T21:36:32.363Z,8.93
2022-11-30T21:39:06.063Z,7.80
2022-11-30T21:41:34.963Z,7.00
2022-11-30T21:44:03.301Z,7.27
2022-11-30T21:46:34.466Z,8.30
2022-11-30T21:49:04.044Z,7.90
2022-11-30T21:51:33.003Z,8.10
2022-11-30T21:54:03.510Z,8.43
2022-11-30T21:56:33.646Z,8.27
2022-11-30T21:59:03.659Z,9.20
2022-11-30T22:01:36.156Z,8.20
2022-11-30T22:04:06.195Z,8.10
2022-11-30T22:06:36.689Z,8.57
2022-11-30T22:09:09.051Z,8.57
2022-11-30T22:11:39.133Z,9.80
2022-11-30T22:14:08.795Z,8.90
2022-11-30T22:16:37.929Z,8.53
2022-11-30T22:19:07.431Z,9.13
2022-11-30T22:21:40.805Z,9.07
2022-11-30T22:24:12.653Z,8.43
2022-11-30T22:26:42.419Z,8.67
2022-11-30T22:29:14.834Z,8.57
2022-11-30T22:31:47.005Z,9.90
2022-11-30T22:34:15.631Z,9.20
2022-11-30T22:36:46.125Z,9.03
2022-11-30T22:39:17.348Z,9.07
2022-11-30T22:41:52.840Z,10.47
2022-11-30T22:44:23.036Z,8.83
2022-11-30T22:46:52.317Z,9.20
2022-11-30T22:49:21.533Z,9.43
2022-11-30T22:51:51.111Z,9.43
2022-11-30T22:54:19.388Z,10.13
2022-11-30T22:56:47.533Z,9.40
2022-11-30T22:59:16.840Z,8.30
2022-11-30T23:01:46.115Z,8.60
2022-11-30T23:04:18.710Z,9.40
2022-11-30T23:06:48.476Z,10.33
2022-11-30T23:09:19.090Z,9.70
2022-11-30T23:11:47.351Z,9.47
2022-11-30T23:14:16.765Z,10.73
2022-11-30T23:16:46.339Z,9.13
2022-11-30T23:19:16.156Z,8.87
2022-11-30T23:21:46.332Z,11.10
2022-11-30T23:24:17.854Z,9.63
2022-11-30T23:26:46.086Z,10.40
2022-11-30T23:29:16.144Z,9.93
2022-11-30T23:31:45.457Z,10.43
2022-11-30T23:34:17.641Z,11.20
2022-11-30T23:36:45.820Z,10.33
2022-11-30T23:39:16.136Z,11.17
2022-11-30T23:41:44.553Z,10.60
2022-11-30T23:44:12.917Z,11.13
2022-11-30T23:46:41.618Z,9.40
2022-11-30T23:49:09.663Z,10.33
2022-11-30T23:51:38.839Z,10.23
2022-11-30T23:54:07.322Z,10.80
2022-11-30T23:56:35.074Z,11.10
2022-11-30T23:59:02.700Z,11.57
